Terminal Aerodrome Forecast
Issued by NWS

Home | Current Version | Previous Version | Text Only | Print | Product List | Glossary On
Versions: 1 2 3 4 5 6 7 8 9 10 11 12 13 14 15 16 17 18 19 20 21 22 23
773
FTAK31 PANC 101127
TAFAAQ
TAF
PAAQ 101127Z 1012/1112 VRB06KT P6SM SKC
     FM101600 02009KT P6SM FEW050 BKN100
     FM102200 07010G18KT P6SM FEW050 BKN100
     FM110600 03008KT P6SM SCT050 BKN090=

USA.gov is the U.S. government's official web portal to all federal, state and local government web resources and services.